Time;durP1;ratioP1;P1;durP2;ratioP2;P2;SDS_P1;SDS_P2;PMS_P1;PMS_P2;Temp;Humidity;BMP_temperature;BMP_pressure;BME280_temperature;BME280_humidity;BME280_pressure;Samples;Min_cycle;Max_cycle;Signal;HPM_P1;HPM_P2
2022/09/16 00:00:35;;;;;;;5.95;5.28;;;18.40;95.60;;;;;;4906312;29;20029;-67
2022/09/16 00:03:01;;;;;;;4.45;4.03;;;18.40;95.60;;;;;;4908813;29;20031;-67
2022/09/16 00:05:27;;;;;;;4.95;4.18;;;18.40;95.60;;;;;;4906711;29;20476;-66
2022/09/16 00:07:54;;;;;;;4.50;4.00;;;18.40;95.60;;;;;;4907182;29;20118;-67
2022/09/16 00:10:20;;;;;;;5.10;4.10;;;18.40;95.60;;;;;;4888010;29;20059;-67
2022/09/16 00:12:46;;;;;;;5.28;4.15;;;18.40;95.70;;;;;;4909048;29;20471;-67
2022/09/16 00:15:11;;;;;;;4.53;4.03;;;18.40;95.70;;;;;;4908622;29;20084;-66
2022/09/16 00:17:37;;;;;;;5.00;4.50;;;18.40;95.60;;;;;;4910666;29;20036;-67
2022/09/16 00:20:04;;;;;;;4.68;4.13;;;18.40;95.60;;;;;;4909828;29;20035;-67
2022/09/16 00:22:30;;;;;;;5.15;4.15;;;18.40;95.60;;;;;;4905883;29;20479;-67
2022/09/16 00:24:56;;;;;;;4.78;4.00;;;18.40;95.60;;;;;;4907537;29;20028;-67
2022/09/16 00:27:21;;;;;;;5.28;4.35;;;18.40;95.60;;;;;;4903958;29;20477;-67
2022/09/16 00:29:47;;;;;;;5.93;4.18;;;18.40;95.60;;;;;;4916309;29;20107;-67
2022/09/16 00:32:13;;;;;;;5.15;4.40;;;18.40;95.60;;;;;;4915188;29;20024;-67
2022/09/16 00:34:38;;;;;;;5.15;4.60;;;18.40;95.60;;;;;;4916324;29;20099;-67
2022/09/16 00:37:07;;;;;;;5.90;4.70;;;18.40;95.70;;;;;;4916609;29;20175;-67
2022/09/16 00:39:36;;;;;;;6.35;4.53;;;18.40;95.70;;;;;;4915198;29;20025;-67
2022/09/16 00:42:03;;;;;;;4.53;4.00;;;18.40;95.80;;;;;;4914977;29;20098;-67
2022/09/16 00:44:48;;;;;;;5.00;4.47;;;18.40;95.80;;;;;;4896684;29;20036;-66
2022/09/16 00:47:18;;;;;;;5.53;4.13;;;18.40;95.50;;;;;;4905796;29;20033;-67
2022/09/16 00:49:45;;;;;;;4.80;4.25;;;18.40;95.80;;;;;;4912697;29;20376;-67
2022/09/16 00:52:11;;;;;;;5.30;4.15;;;18.40;95.80;;;;;;4913479;29;20444;-67
2022/09/16 00:54:38;;;;;;;4.90;4.40;;;18.40;95.70;;;;;;4916481;29;20051;-66
2022/09/16 00:57:07;;;;;;;4.75;4.22;;;18.40;95.60;;;;;;4913906;29;20039;-67
2022/09/16 00:59:36;;;;;;;5.10;4.60;;;18.40;95.60;;;;;;4914416;29;20452;-67
2022/09/16 01:02:10;;;;;;;5.00;4.00;;;18.40;95.40;;;;;;4915770;29;20027;-67
2022/09/16 01:04:54;;;;;;;5.10;4.55;;;18.40;95.40;;;;;;4914331;29;20498;-67
2022/09/16 01:07:29;;;;;;;5.22;4.72;;;18.30;95.10;;;;;;4911473;29;20024;-66
2022/09/16 01:09:55;;;;;;;4.82;4.28;;;18.30;95.20;;;;;;4910667;29;20048;-66
2022/09/16 01:12:21;;;;;;;5.32;4.70;;;18.30;95.30;;;;;;4915133;29;20053;-67
2022/09/16 01:14:53;;;;;;;5.63;4.78;;;18.30;95.40;;;;;;4911418;29;20024;-66
2022/09/16 01:17:32;;;;;;;4.55;4.15;;;18.30;95.40;;;;;;4916877;29;20447;-67
2022/09/16 01:20:32;;;;;;;5.75;4.82;;;18.30;95.50;;;;;;4912882;29;20047;-67
2022/09/16 01:23:12;;;;;;;6.07;4.20;;;18.20;95.20;;;;;;4914930;29;20453;-67
2022/09/16 01:25:44;;;;;;;4.50;3.90;;;18.20;95.50;;;;;;4908219;29;20028;-67
2022/09/16 01:28:33;;;;;;;4.43;3.95;;;18.20;95.60;;;;;;4913861;29;20699;-67
2022/09/16 01:31:22;;;;;;;4.95;4.05;;;18.20;95.50;;;;;;4914451;29;20024;-67
2022/09/16 01:34:01;;;;;;;5.43;4.30;;;18.20;95.40;;;;;;4915935;29;20484;-67
2022/09/16 01:36:39;;;;;;;4.70;4.25;;;18.20;95.60;;;;;;4911954;29;20084;-67
2022/09/16 01:39:13;;;;;;;4.35;3.88;;;18.20;95.50;;;;;;4915152;29;20401;-67
2022/09/16 01:42:16;;;;;;;5.35;4.28;;;18.20;95.60;;;;;;4913719;29;20028;-66
2022/09/16 01:44:54;;;;;;;4.40;4.00;;;18.20;95.40;;;;;;4911239;29;20043;-67
2022/09/16 01:47:34;;;;;;;4.10;3.60;;;18.20;95.50;;;;;;4897117;29;20032;-66
2022/09/16 01:50:06;;;;;;;5.47;4.03;;;18.20;95.40;;;;;;4913382;29;20035;-66
2022/09/16 01:52:48;;;;;;;5.15;4.30;;;18.20;95.60;;;;;;4912104;29;20039;-66
2022/09/16 01:55:31;;;;;;;4.75;4.25;;;18.20;95.40;;;;;;4900704;29;20142;-66
2022/09/16 01:58:07;;;;;;;4.75;4.25;;;18.20;95.50;;;;;;4905014;29;20028;-66
2022/09/16 02:00:33;;;;;;;4.90;4.40;;;18.20;95.70;;;;;;4904983;29;20119;-67
2022/09/16 02:03:06;;;;;;;5.60;4.47;;;18.20;95.70;;;;;;4914762;29;20171;-67
2022/09/16 02:05:34;;;;;;;5.50;4.30;;;18.20;95.60;;;;;;4913758;29;20471;-67
2022/09/16 02:08:11;;;;;;;5.63;4.53;;;18.20;95.70;;;;;;4913592;29;20036;-67
2022/09/16 02:10:58;;;;;;;4.88;4.13;;;18.30;95.60;;;;;;4914896;29;20036;-67
2022/09/16 02:13:40;;;;;;;4.43;4.03;;;18.30;95.40;;;;;;4914386;29;20115;-67
2022/09/16 02:16:15;;;;;;;5.45;4.22;;;18.30;95.50;;;;;;4915209;29;20020;-67
2022/09/16 02:18:42;;;;;;;5.05;4.25;;;18.30;95.50;;;;;;4900049;29;20421;-67
2022/09/16 02:21:13;;;;;;;5.82;4.40;;;18.30;95.60;;;;;;4908390;29;20381;-67
2022/09/16 02:23:54;;;;;;;4.53;3.90;;;18.30;95.50;;;;;;4913544;29;20021;-67
2022/09/16 02:26:26;;;;;;;4.70;4.10;;;18.30;95.40;;;;;;4911050;29;20024;-67
2022/09/16 02:28:53;;;;;;;4.47;3.92;;;18.30;95.40;;;;;;4914472;29;20032;-67
2022/09/16 02:31:24;;;;;;;4.95;3.63;;;18.30;95.40;;;;;;4914328;29;20047;-67
2022/09/16 02:33:59;;;;;;;5.32;4.28;;;18.30;95.40;;;;;;4916643;29;20171;-67
2022/09/16 02:36:27;;;;;;;7.00;4.82;;;18.30;95.40;;;;;;4912950;29;20041;-67
2022/09/16 02:39:01;;;;;;;4.57;4.13;;;18.30;95.50;;;;;;4913321;29;20036;-67
2022/09/16 02:41:27;;;;;;;4.90;4.40;;;18.30;95.40;;;;;;4916401;29;20047;-67
2022/09/16 02:43:53;;;;;;;6.18;4.90;;;18.30;95.60;;;;;;4918103;29;20365;-66
2022/09/16 02:46:43;;;;;;;5.05;4.32;;;18.30;95.60;;;;;;4918238;29;20027;-67
2022/09/16 02:49:27;;;;;;;4.82;4.28;;;18.30;95.40;;;;;;4913840;29;20031;-67
2022/09/16 02:52:11;;;;;;;4.28;3.88;;;18.30;95.40;;;;;;4914376;29;20099;-67
2022/09/16 02:55:00;;;;;;;4.05;3.60;;;18.30;95.50;;;;;;4911284;29;20531;-67
2022/09/16 02:57:26;;;;;;;4.30;3.90;;;18.30;95.40;;;;;;4914207;29;20464;-67
2022/09/16 02:59:52;;;;;;;4.80;4.30;;;18.30;95.50;;;;;;4898563;29;20016;-66
2022/09/16 03:02:18;;;;;;;4.80;4.30;;;18.30;95.40;;;;;;4918132;29;20468;-67
2022/09/16 03:04:44;;;;;;;5.93;4.38;;;18.30;95.40;;;;;;4918212;29;20035;-67
2022/09/16 03:07:11;;;;;;;4.53;3.92;;;18.30;95.40;;;;;;4917739;29;20037;-67
2022/09/16 03:09:41;;;;;;;3.90;3.58;;;18.30;95.40;;;;;;4918197;29;20031;-66
2022/09/16 03:12:22;;;;;;;4.53;4.00;;;18.30;95.40;;;;;;4909644;29;20041;-67
2022/09/16 03:15:09;;;;;;;5.05;3.78;;;18.30;95.30;;;;;;4912606;29;20028;-66
2022/09/16 03:17:56;;;;;;;5.78;4.10;;;18.30;95.20;;;;;;4919573;29;20024;-67
2022/09/16 03:20:22;;;;;;;5.32;4.43;;;18.30;95.20;;;;;;4911843;29;20024;-67
2022/09/16 03:23:14;;;;;;;4.88;4.05;;;18.30;95.30;;;;;;4900825;29;20392;-67
2022/09/16 03:26:02;;;;;;;4.72;4.25;;;18.30;95.10;;;;;;4909404;29;20032;-67
2022/09/16 03:28:53;;;;;;;6.03;4.10;;;18.30;95.30;;;;;;4904087;29;20062;-68
2022/09/16 03:31:27;;;;;;;4.90;4.28;;;18.30;95.20;;;;;;4914821;29;20493;-67
2022/09/16 03:34:09;;;;;;;4.45;4.03;;;18.30;95.30;;;;;;4917558;29;20060;-67
2022/09/16 03:36:46;;;;;;;5.32;4.40;;;18.30;95.30;;;;;;4917416;29;20020;-67
2022/09/16 03:39:13;;;;;;;4.22;3.83;;;18.40;95.30;;;;;;4916089;29;20025;-67
2022/09/16 03:41:39;;;;;;;4.80;4.30;;;18.40;95.40;;;;;;4917211;29;20028;-67
2022/09/16 03:44:05;;;;;;;5.05;4.28;;;18.40;95.40;;;;;;4916994;29;20052;-67
2022/09/16 03:46:33;;;;;;;4.75;4.22;;;18.40;95.40;;;;;;4903389;29;20387;-68
2022/09/16 03:48:59;;;;;;;4.75;4.25;;;18.40;95.40;;;;;;4916625;29;20503;-67
2022/09/16 03:51:25;;;;;;;4.55;4.15;;;18.40;95.30;;;;;;4915953;29;20041;-67
2022/09/16 03:53:52;;;;;;;4.63;4.13;;;18.40;95.30;;;;;;4917324;29;20028;-72
2022/09/16 03:56:18;;;;;;;5.25;4.30;;;18.40;95.30;;;;;;4916585;29;20338;-66
2022/09/16 03:58:45;;;;;;;5.90;3.92;;;18.40;95.30;;;;;;4917194;29;20080;-66
2022/09/16 04:01:11;;;;;;;4.70;4.03;;;18.40;95.20;;;;;;4916631;29;20020;-66
2022/09/16 04:03:37;;;;;;;4.90;4.43;;;18.50;95.20;;;;;;4908912;29;20035;-67
2022/09/16 04:06:03;;;;;;;4.88;4.22;;;18.50;95.20;;;;;;4916901;29;20024;-67
2022/09/16 04:08:28;;;;;;;4.50;4.00;;;18.50;95.20;;;;;;4916863;29;20399;-67
2022/09/16 04:11:04;;;;;;;5.20;4.43;;;18.50;95.20;;;;;;4916660;29;20084;-67
2022/09/16 04:13:31;;;;;;;4.30;3.90;;;18.50;95.50;;;;;;4916745;29;20066;-67
2022/09/16 04:15:56;;;;;;;4.93;4.30;;;18.50;95.30;;;;;;4919214;29;20052;-66
2022/09/16 04:18:22;;;;;;;7.22;4.78;;;18.50;95.20;;;;;;4917439;29;20511;-66
2022/09/16 04:20:48;;;;;;;4.97;4.47;;;18.60;95.20;;;;;;4913301;29;20028;-67
2022/09/16 04:23:14;;;;;;;5.10;4.15;;;18.60;95.20;;;;;;4913513;29;20388;-66
2022/09/16 04:25:42;;;;;;;4.05;3.65;;;18.60;95.20;;;;;;4916831;29;20028;-67
2022/09/16 04:28:08;;;;;;;4.82;4.20;;;18.60;95.10;;;;;;4916047;29;20095;-67
2022/09/16 04:30:33;;;;;;;4.03;3.58;;;18.60;95.10;;;;;;4914555;29;20507;-66
2022/09/16 04:32:59;;;;;;;4.80;4.28;;;18.60;95.10;;;;;;4914900;29;20108;-67
2022/09/16 04:35:24;;;;;;;4.35;3.83;;;18.60;95.00;;;;;;4915031;29;20036;-66
2022/09/16 04:37:51;;;;;;;4.88;4.22;;;18.60;95.00;;;;;;4915659;29;20392;-67
2022/09/16 04:40:18;;;;;;;4.72;3.83;;;18.70;95.10;;;;;;4909236;29;20103;-66
2022/09/16 04:42:50;;;;;;;4.35;3.72;;;18.70;95.10;;;;;;4913889;29;20024;-67
2022/09/16 04:45:16;;;;;;;4.22;3.67;;;18.70;95.00;;;;;;4915756;29;20095;-67
2022/09/16 04:47:42;;;;;;;4.50;3.78;;;18.70;95.10;;;;;;4916156;29;20064;-67
2022/09/16 04:50:08;;;;;;;4.55;3.88;;;18.70;95.00;;;;;;4906169;29;20032;-67
2022/09/16 04:52:34;;;;;;;4.15;3.60;;;18.80;94.90;;;;;;4915931;29;20028;-66
2022/09/16 04:54:59;;;;;;;4.40;3.80;;;18.80;94.90;;;;;;4914216;29;20134;-67
2022/09/16 04:57:28;;;;;;;4.80;4.30;;;18.90;94.80;;;;;;4914007;29;20472;-67
2022/09/16 04:59:54;;;;;;;4.18;3.78;;;18.80;94.70;;;;;;4904609;29;20052;-67
2022/09/16 05:02:20;;;;;;;4.40;3.90;;;18.80;94.60;;;;;;4911188;29;20112;-67
2022/09/16 05:04:45;;;;;;;4.13;3.72;;;18.90;94.50;;;;;;4916176;29;20067;-67
2022/09/16 05:07:11;;;;;;;5.05;4.32;;;18.80;94.50;;;;;;4915616;29;20532;-67
2022/09/16 05:09:37;;;;;;;4.97;4.28;;;18.80;94.50;;;;;;4913354;29;20039;-67
2022/09/16 05:12:02;;;;;;;5.15;4.35;;;18.80;94.40;;;;;;4914590;29;20035;-67
2022/09/16 05:14:28;;;;;;;5.15;4.45;;;18.80;94.40;;;;;;4914174;29;20039;-67
2022/09/16 05:16:54;;;;;;;4.93;4.38;;;18.90;94.50;;;;;;4915536;29;20438;-65
2022/09/16 05:19:19;;;;;;;4.75;4.00;;;18.80;94.40;;;;;;4913786;29;20107;-66
2022/09/16 05:21:45;;;;;;;5.65;5.05;;;18.80;94.50;;;;;;4915732;29;20042;-65
2022/09/16 05:24:12;;;;;;;5.65;4.72;;;18.80;94.60;;;;;;4909196;29;20020;-65
2022/09/16 05:26:40;;;;;;;4.28;3.85;;;18.80;94.60;;;;;;4912462;29;20487;-66
2022/09/16 05:29:10;;;;;;;4.07;3.67;;;18.80;94.60;;;;;;4913625;29;20040;-66
2022/09/16 05:31:38;;;;;;;4.18;3.75;;;18.80;94.70;;;;;;4899899;29;20036;-65
2022/09/16 05:34:03;;;;;;;5.43;4.50;;;18.80;94.50;;;;;;4914534;29;20028;-66
2022/09/16 05:36:32;;;;;;;5.55;3.90;;;18.80;94.40;;;;;;4908041;29;20404;-66
2022/09/16 05:38:58;;;;;;;4.10;3.70;;;18.80;94.20;;;;;;4906280;29;20024;-66
2022/09/16 05:41:25;;;;;;;4.10;3.65;;;18.80;94.20;;;;;;4905281;29;20035;-65
2022/09/16 05:43:51;;;;;;;4.15;3.30;;;18.70;94.10;;;;;;4901276;29;20108;-67
2022/09/16 05:46:21;;;;;;;3.95;3.53;;;18.70;94.10;;;;;;4912071;29;20123;-66
2022/09/16 05:48:47;;;;;;;3.40;3.10;;;18.70;94.00;;;;;;4905513;29;20126;-66
2022/09/16 05:51:17;;;;;;;3.45;3.15;;;18.70;94.00;;;;;;4909167;29;20672;-66
2022/09/16 05:53:44;;;;;;;3.00;2.70;;;18.70;93.90;;;;;;4911090;29;20035;-66
2022/09/16 05:56:13;;;;;;;3.92;3.17;;;18.70;93.90;;;;;;4904122;29;20051;-66
2022/09/16 05:58:39;;;;;;;3.47;2.97;;;18.70;93.80;;;;;;4910364;29;20444;-67
2022/09/16 06:01:12;;;;;;;3.85;2.95;;;18.60;93.70;;;;;;4910462;29;20480;-66
2022/09/16 06:03:39;;;;;;;4.15;3.53;;;18.70;93.70;;;;;;4903168;29;20484;-66
2022/09/16 06:06:06;;;;;;;3.90;3.40;;;18.60;93.80;;;;;;4905246;29;20028;-66
2022/09/16 06:08:35;;;;;;;4.30;3.67;;;18.60;93.80;;;;;;4909070;29;20118;-66
2022/09/16 06:11:03;;;;;;;4.78;3.53;;;18.60;93.60;;;;;;4907601;29;20024;-66
2022/09/16 06:13:29;;;;;;;4.57;3.55;;;18.60;93.70;;;;;;4906673;29;20563;-66
2022/09/16 06:15:55;;;;;;;3.50;3.13;;;18.50;93.80;;;;;;4904569;29;20507;-65
2022/09/16 06:18:23;;;;;;;3.70;2.85;;;18.50;93.90;;;;;;4887911;29;20024;-65
2022/09/16 06:20:49;;;;;;;3.58;3.05;;;18.50;93.90;;;;;;4900838;29;20073;-66
2022/09/16 06:23:16;;;;;;;3.90;3.03;;;18.50;94.00;;;;;;4900036;29;20040;-66
2022/09/16 06:25:41;;;;;;;2.88;2.63;;;18.50;94.10;;;;;;4905747;29;20055;-66
2022/09/16 06:28:08;;;;;;;3.08;2.78;;;18.50;94.10;;;;;;4907638;29;20032;-66
2022/09/16 06:30:34;;;;;;;3.45;2.97;;;18.60;94.10;;;;;;4902095;29;20039;-65
2022/09/16 06:33:00;;;;;;;3.55;3.15;;;18.60;94.10;;;;;;4901084;29;20071;-66
2022/09/16 06:35:26;;;;;;;3.88;3.28;;;18.60;94.20;;;;;;4898995;29;20036;-66
2022/09/16 06:37:53;;;;;;;3.42;2.95;;;18.60;94.10;;;;;;4890839;29;20067;-66
2022/09/16 06:40:19;;;;;;;4.03;3.33;;;18.70;94.20;;;;;;4889845;29;20096;-66
2022/09/16 06:42:45;;;;;;;3.47;3.17;;;18.70;94.10;;;;;;4894319;29;20032;-66
2022/09/16 06:45:11;;;;;;;4.47;3.70;;;18.70;94.10;;;;;;4888369;29;21398;-65
2022/09/16 06:47:36;;;;;;;4.80;4.13;;;18.70;94.00;;;;;;4885956;29;20179;-67
2022/09/16 06:50:04;;;;;;;5.28;3.83;;;18.80;94.00;;;;;;4900066;29;21099;-67
2022/09/16 06:52:30;;;;;;;5.28;3.88;;;18.80;93.90;;;;;;4897698;29;20024;-66
2022/09/16 06:54:57;;;;;;;4.63;3.92;;;18.80;94.00;;;;;;4894241;29;20047;-65
2022/09/16 06:57:23;;;;;;;4.07;3.67;;;18.80;94.00;;;;;;4905797;29;20028;-65
2022/09/16 06:59:49;;;;;;;4.32;3.83;;;18.80;93.80;;;;;;4903793;29;20636;-65
2022/09/16 07:02:15;;;;;;;5.25;4.03;;;18.80;93.90;;;;;;4905120;29;20676;-68
2022/09/16 07:04:42;;;;;;;4.15;3.60;;;18.90;93.80;;;;;;4908925;29;20043;-65
2022/09/16 07:07:08;;;;;;;6.30;4.00;;;18.90;93.80;;;;;;4903442;29;20032;-65
2022/09/16 07:09:34;;;;;;;5.07;4.57;;;18.90;93.60;;;;;;4906169;29;20126;-66
2022/09/16 07:12:00;;;;;;;5.45;4.18;;;18.90;93.50;;;;;;4905998;29;20364;-66
2022/09/16 07:14:27;;;;;;;5.20;4.40;;;18.90;93.40;;;;;;4903520;29;20063;-66
2022/09/16 07:16:52;;;;;;;5.63;4.88;;;18.80;93.40;;;;;;4904844;29;20150;-65
2022/09/16 07:19:18;;;;;;;5.25;4.50;;;18.80;93.40;;;;;;4905003;29;20038;-66
2022/09/16 07:21:44;;;;;;;5.03;4.43;;;18.80;93.50;;;;;;4910131;29;20132;-66
2022/09/16 07:24:14;;;;;;;5.57;4.70;;;18.80;93.50;;;;;;4909610;29;20482;-66
2022/09/16 07:26:41;;;;;;;5.05;4.55;;;18.80;93.50;;;;;;4905321;29;20104;-65
2022/09/16 07:29:14;;;;;;;5.00;4.35;;;18.70;93.60;;;;;;4904359;29;20474;-65
2022/09/16 07:31:40;;;;;;;5.50;4.50;;;18.80;93.60;;;;;;4902625;29;20027;-66
2022/09/16 07:34:08;;;;;;;5.43;4.68;;;18.70;93.80;;;;;;4908792;29;20024;-66
2022/09/16 07:36:39;;;;;;;7.35;6.25;;;18.80;93.90;;;;;;4911024;29;20051;-66
2022/09/16 07:39:06;;;;;;;7.75;6.30;;;18.80;93.80;;;;;;4907762;29;20464;-66
2022/09/16 07:41:33;;;;;;;7.05;5.78;;;18.80;93.80;;;;;;4909865;29;20100;-67
2022/09/16 07:44:00;;;;;;;6.25;5.43;;;18.80;93.70;;;;;;4909352;29;20043;-67
2022/09/16 07:46:28;;;;;;;6.10;5.50;;;18.70;93.80;;;;;;4901874;29;20119;-66
2022/09/16 07:48:54;;;;;;;6.13;4.95;;;18.80;93.90;;;;;;4905552;29;20047;-64
2022/09/16 07:51:22;;;;;;;5.85;5.25;;;18.70;93.90;;;;;;4903338;29;20318;-65
2022/09/16 07:53:58;;;;;;;7.20;5.35;;;18.80;94.00;;;;;;4895177;29;20149;-65
2022/09/16 07:56:24;;;;;;;6.75;5.88;;;18.80;93.90;;;;;;4890186;29;20540;-65
2022/09/16 07:58:52;;;;;;;6.55;5.85;;;18.80;93.90;;;;;;4873240;29;20473;-66
2022/09/16 08:01:17;;;;;;;5.75;5.15;;;18.80;93.90;;;;;;4879666;29;20058;-66
2022/09/16 08:03:44;;;;;;;6.45;5.57;;;18.80;93.90;;;;;;4885333;29;20532;-66
2022/09/16 08:06:19;;;;;;;7.00;6.05;;;18.80;93.90;;;;;;4878533;29;20029;-65
2022/09/16 08:08:45;;;;;;;8.30;6.82;;;18.90;93.70;;;;;;4885799;29;20028;-66
2022/09/16 08:11:13;;;;;;;8.25;7.03;;;18.90;93.70;;;;;;4881493;29;20059;-66
2022/09/16 08:13:39;;;;;;;9.05;7.57;;;19.00;93.70;;;;;;4863297;29;20139;-69
2022/09/16 08:16:08;;;;;;;9.00;7.43;;;19.00;93.70;;;;;;4883652;29;20039;-65
2022/09/16 08:18:33;;;;;;;9.68;8.63;;;19.00;93.60;;;;;;4883165;29;20071;-66
2022/09/16 08:21:07;;;;;;;10.13;8.68;;;19.00;93.60;;;;;;4880031;29;20516;-66
2022/09/16 08:23:34;;;;;;;10.55;8.82;;;19.00;93.50;;;;;;4876609;29;20036;-67
2022/09/16 08:25:59;;;;;;;10.70;8.82;;;19.00;93.80;;;;;;4877495;29;20058;-67
2022/09/16 08:28:26;;;;;;;10.00;8.68;;;19.10;93.90;;;;;;4886648;29;20032;-66
2022/09/16 08:30:53;;;;;;;10.93;9.02;;;19.10;94.00;;;;;;4882032;29;20107;-66
2022/09/16 08:33:23;;;;;;;10.95;8.45;;;19.20;94.10;;;;;;4881083;29;20032;-67
2022/09/16 08:36:04;;;;;;;11.63;8.88;;;19.30;94.10;;;;;;4885465;29;20167;-67
2022/09/16 08:38:30;;;;;;;12.77;10.50;;;19.40;93.80;;;;;;4870251;29;20032;-67
2022/09/16 08:41:25;;;;;;;11.60;9.77;;;19.40;93.80;;;;;;4882058;29;20123;-67
2022/09/16 08:44:29;;;;;;;13.50;10.40;;;19.40;93.30;;;;;;4872273;29;20052;-68
2022/09/16 08:47:05;;;;;;;11.35;9.60;;;19.40;93.20;;;;;;4887359;29;20043;-67
2022/09/16 08:49:49;;;;;;;11.85;9.70;;;19.50;93.40;;;;;;4878593;29;20128;-67
2022/09/16 08:52:30;;;;;;;10.77;9.55;;;19.50;93.40;;;;;;4881810;29;20036;-66
2022/09/16 08:55:11;;;;;;;10.75;8.70;;;19.50;93.20;;;;;;4883332;29;20062;-66
2022/09/16 08:57:49;;;;;;;9.70;8.23;;;19.50;93.10;;;;;;4880535;29;20043;-67
2022/09/16 09:00:18;;;;;;;10.43;8.45;;;19.50;93.00;;;;;;4887737;29;20452;-66
2022/09/16 09:03:11;;;;;;;9.48;8.48;;;19.50;92.70;;;;;;4886737;29;20032;-67
2022/09/16 09:05:42;;;;;;;8.05;7.10;;;19.50;92.40;;;;;;4885661;29;20040;-66
2022/09/16 09:08:10;;;;;;;9.18;7.70;;;19.40;92.50;;;;;;4879275;29;20575;-67
2022/09/16 09:10:48;;;;;;;8.90;7.53;;;19.30;92.70;;;;;;4889153;29;20058;-66
2022/09/16 09:13:44;;;;;;;8.77;7.70;;;19.30;92.70;;;;;;4882758;29;20031;-67
2022/09/16 09:16:29;;;;;;;7.47;6.43;;;19.30;92.60;;;;;;4872996;29;22078;-66
2022/09/16 09:19:04;;;;;;;9.23;7.40;;;19.30;92.70;;;;;;4880447;29;20026;-66
2022/09/16 09:21:52;;;;;;;9.80;8.15;;;19.20;92.90;;;;;;4881807;29;20028;-67
2022/09/16 09:25:08;;;;;;;12.80;9.68;;;19.20;92.80;;;;;;4883242;29;20032;-65
2022/09/16 09:27:54;;;;;;;11.10;9.15;;;19.20;92.50;;;;;;4817686;29;20047;-66
2022/09/16 09:30:22;;;;;;;12.93;10.05;;;19.20;92.50;;;;;;4817629;29;20041;-65
2022/09/16 09:32:48;;;;;;;13.18;10.73;;;19.10;92.60;;;;;;4865735;29;20087;-65
2022/09/16 09:35:38;;;;;;;13.00;10.43;;;19.10;92.70;;;;;;4888486;29;20618;-65
2022/09/16 09:38:27;;;;;;;11.87;10.30;;;19.10;92.50;;;;;;4881778;29;20024;-65
2022/09/16 09:40:57;;;;;;;12.10;9.68;;;19.10;92.70;;;;;;4883314;29;20052;-65
2022/09/16 09:44:13;;;;;;;11.00;9.45;;;19.10;92.80;;;;;;4885088;29;20032;-65
2022/09/16 09:46:45;;;;;;;11.27;9.52;;;19.10;92.60;;;;;;4795381;29;20034;-66
2022/09/16 09:49:12;;;;;;;10.55;8.88;;;19.10;92.70;;;;;;4793158;29;20057;-65
2022/09/16 09:51:55;;;;;;;9.88;8.55;;;19.10;92.80;;;;;;4844479;29;20051;-65
2022/09/16 09:54:28;;;;;;;9.73;8.70;;;19.10;92.80;;;;;;4886997;29;20029;-65
2022/09/16 09:57:07;;;;;;;11.02;9.07;;;19.10;92.80;;;;;;4885712;29;20698;-65
2022/09/16 09:59:40;;;;;;;10.50;8.75;;;19.20;92.60;;;;;;4877656;29;20131;-65
2022/09/16 10:02:24;;;;;;;10.93;9.43;;;19.20;92.80;;;;;;4889229;29;20061;-65
2022/09/16 10:04:50;;;;;;;9.93;8.77;;;19.20;92.60;;;;;;4882213;29;20032;-66
2022/09/16 10:07:19;;;;;;;10.18;8.20;;;19.20;92.70;;;;;;4880298;29;20036;-66
2022/09/16 10:10:01;;;;;;;8.75;7.40;;;19.20;92.60;;;;;;4892206;29;20036;-66
2022/09/16 10:12:33;;;;;;;8.18;7.32;;;19.20;92.40;;;;;;4896628;29;20137;-66
2022/09/16 10:14:59;;;;;;;7.45;6.63;;;19.20;92.40;;;;;;4893738;29;20029;-65
2022/09/16 10:17:26;;;;;;;8.13;7.03;;;19.20;92.30;;;;;;4888703;29;20100;-66
2022/09/16 10:20:06;;;;;;;7.75;6.95;;;19.20;92.20;;;;;;4896247;29;20111;-66
2022/09/16 10:22:33;;;;;;;7.78;7.03;;;19.20;92.00;;;;;;4895074;29;20036;-69
2022/09/16 10:25:01;;;;;;;8.57;7.68;;;19.20;92.10;;;;;;4882899;29;20119;-66
2022/09/16 10:27:33;;;;;;;10.27;8.85;;;19.20;92.10;;;;;;4884652;29;20036;-65
2022/09/16 10:30:11;;;;;;;9.52;7.55;;;19.20;92.10;;;;;;4894360;29;20028;-65
2022/09/16 10:32:52;;;;;;;8.38;7.20;;;19.20;92.10;;;;;;4892607;29;20043;-66
2022/09/16 10:35:30;;;;;;;10.70;8.40;;;19.20;92.00;;;;;;4893836;29;20080;-66
2022/09/16 10:38:04;;;;;;;8.07;7.03;;;19.20;91.90;;;;;;4886488;29;20033;-65
2022/09/16 10:40:30;;;;;;;6.25;5.65;;;19.20;92.00;;;;;;4894288;29;20806;-66
2022/09/16 10:43:04;;;;;;;7.20;6.35;;;19.20;92.00;;;;;;4894610;29;20036;-66
2022/09/16 10:45:34;;;;;;;6.10;5.50;;;19.20;92.00;;;;;;4886530;29;20032;-66
2022/09/16 10:48:04;;;;;;;6.30;5.63;;;19.20;92.00;;;;;;4887691;29;20556;-66
2022/09/16 10:50:30;;;;;;;6.72;5.72;;;19.20;91.90;;;;;;4883946;29;20161;-66
2022/09/16 10:52:55;;;;;;;5.88;5.07;;;19.20;91.80;;;;;;4886407;29;20829;-65
2022/09/16 10:55:35;;;;;;;7.45;5.25;;;19.20;91.80;;;;;;4885529;29;20056;-65
2022/09/16 10:58:27;;;;;;;6.00;5.40;;;19.20;91.70;;;;;;4895481;29;20028;-66
2022/09/16 11:00:55;;;;;;;5.63;4.97;;;19.20;91.50;;;;;;4888658;29;21081;-65
2022/09/16 11:03:42;;;;;;;5.15;4.65;;;19.20;91.50;;;;;;4890959;29;20547;-66
2022/09/16 11:06:17;;;;;;;4.85;4.35;;;19.20;91.40;;;;;;4884748;29;20972;-66
2022/09/16 11:08:51;;;;;;;4.72;4.20;;;19.20;91.50;;;;;;4889235;29;20058;-65
2022/09/16 11:11:45;;;;;;;4.57;4.03;;;19.20;91.20;;;;;;4882281;29;20135;-65
2022/09/16 11:14:31;;;;;;;4.70;4.20;;;19.30;91.10;;;;;;4885569;29;20067;-65
2022/09/16 11:17:11;;;;;;;4.55;4.05;;;19.30;91.00;;;;;;4893257;29;20028;-65
2022/09/16 11:19:55;;;;;;;5.13;4.47;;;19.30;90.90;;;;;;4893629;29;20786;-66
2022/09/16 11:22:30;;;;;;;5.20;4.30;;;19.30;90.80;;;;;;4887140;29;20037;-66
2022/09/16 11:25:35;;;;;;;4.80;4.30;;;19.30;90.70;;;;;;4882228;29;20036;-65
2022/09/16 11:28:32;;;;;;;5.07;4.10;;;19.30;90.40;;;;;;4833033;29;20097;-66
2022/09/16 11:31:26;;;;;;;4.05;3.65;;;19.30;90.40;;;;;;4873769;29;20875;-68
2022/09/16 11:34:36;;;;;;;4.30;3.67;;;19.30;90.30;;;;;;4890668;29;20044;-66
2022/09/16 11:37:32;;;;;;;4.78;4.00;;;19.30;90.10;;;;;;4879452;29;20076;-69
2022/09/16 11:40:19;;;;;;;4.53;3.85;;;19.40;90.10;;;;;;4889878;29;20526;-65
2022/09/16 11:43:16;;;;;;;4.07;3.58;;;19.30;90.10;;;;;;4887918;29;20024;-66
2022/09/16 11:45:55;;;;;;;4.40;4.00;;;19.40;90.00;;;;;;4882345;29;20137;-66
2022/09/16 11:48:29;;;;;;;4.30;3.90;;;19.40;89.90;;;;;;4890486;29;20052;-66
2022/09/16 11:51:25;;;;;;;4.18;3.78;;;19.40;89.70;;;;;;4885223;29;20025;-65
2022/09/16 11:54:19;;;;;;;4.00;3.60;;;19.40;89.50;;;;;;4880980;29;20127;-67
2022/09/16 11:57:09;;;;;;;3.67;3.25;;;19.50;89.40;;;;;;4895986;29;20048;-67
2022/09/16 12:00:01;;;;;;;3.90;3.38;;;19.50;89.30;;;;;;4897795;29;20115;-66
2022/09/16 12:02:39;;;;;;;3.45;3.03;;;19.50;89.70;;;;;;4887134;29;20047;-66
2022/09/16 12:05:20;;;;;;;4.13;3.47;;;19.50;88.90;;;;;;4883298;29;22845;-66
2022/09/16 12:08:23;;;;;;;3.80;3.50;;;19.50;88.70;;;;;;4903739;29;20106;-66
2022/09/16 12:10:53;;;;;;;3.85;3.42;;;19.50;88.50;;;;;;4909212;29;20044;-65
2022/09/16 12:13:28;;;;;;;3.58;3.28;;;19.50;88.40;;;;;;4904387;29;20035;-67
2022/09/16 12:15:59;;;;;;;3.40;3.10;;;19.60;88.10;;;;;;4892791;29;20387;-66
2022/09/16 12:18:42;;;;;;;3.55;3.25;;;19.60;88.00;;;;;;4897824;29;20527;-66
2022/09/16 12:21:19;;;;;;;3.30;3.00;;;19.60;87.60;;;;;;4906726;29;20054;-67
2022/09/16 12:23:50;;;;;;;3.97;3.38;;;19.60;87.50;;;;;;4893941;29;20579;-67
2022/09/16 12:26:23;;;;;;;4.22;3.78;;;19.60;87.30;;;;;;4900667;29;20036;-67
2022/09/16 12:28:55;;;;;;;5.05;3.60;;;19.70;87.20;;;;;;4895616;29;20043;-67
2022/09/16 12:31:41;;;;;;;4.55;3.55;;;19.70;87.00;;;;;;4908227;29;20034;-66
2022/09/16 12:34:15;;;;;;;4.32;3.83;;;19.70;87.00;;;;;;4910373;29;20490;-67
2022/09/16 12:36:46;;;;;;;4.40;3.10;;;19.70;86.80;;;;;;4904326;29;20035;-66
2022/09/16 12:39:12;;;;;;;3.17;2.88;;;19.70;86.60;;;;;;4906272;29;20032;-66
2022/09/16 12:42:14;;;;;;;4.63;3.90;;;19.70;86.60;;;;;;4906660;29;20032;-66
2022/09/16 12:45:07;;;;;;;4.03;3.63;;;19.80;86.50;;;;;;4906621;29;20568;-67
2022/09/16 12:47:45;;;;;;;4.03;3.55;;;19.90;86.60;;;;;;4906193;29;20520;-67
2022/09/16 12:50:48;;;;;;;4.45;3.67;;;19.90;86.30;;;;;;4895881;29;20038;-67
2022/09/16 12:53:45;;;;;;;4.32;3.70;;;20.00;86.10;;;;;;4904768;29;20209;-67
2022/09/16 12:56:28;;;;;;;4.20;3.80;;;20.10;86.50;;;;;;4887919;29;20517;-66
2022/09/16 12:59:32;;;;;;;4.13;3.63;;;20.20;85.80;;;;;;4886511;29;20032;-67
2022/09/16 13:02:38;;;;;;;4.32;3.78;;;20.20;85.50;;;;;;4883120;29;20647;-67
2022/09/16 13:05:20;;;;;;;4.40;3.70;;;20.30;85.40;;;;;;4863247;29;20424;-67
2022/09/16 13:07:54;;;;;;;4.65;4.00;;;20.30;85.30;;;;;;4870212;29;20069;-67
2022/09/16 13:10:35;;;;;;;5.28;4.40;;;20.30;85.10;;;;;;4878146;29;20032;-66
2022/09/16 13:13:03;;;;;;;4.88;4.18;;;20.30;84.90;;;;;;4880913;29;20024;-67
2022/09/16 13:15:34;;;;;;;5.30;4.10;;;20.30;84.90;;;;;;4864381;29;20078;-67
2022/09/16 13:18:07;;;;;;;;;;;20.30;84.80;;;;;;4883504;29;20040;-67